• Join FlightAware (Why Join?)
  • Login
  • US Flag 
12:59AM EDT


 

Airport Tracker/Info


-or-


 

Live Flight TrackerFlight Track Log ✈ SWA691 ✈ 03-Feb-2014 ✈ KBWI - TJSJ / SJU

Flight Track Log - Related Links

Times and Time Zones

All times are in EST time to prevent confusion due to time zone crossing. See the SWA691 flight status page for this flight to view local times or setup timezone preferences in your user account.

Time Position Orientation Groundspeed Altitude Reporting Facility
EST Latitude Longitude Course Direction KTS MPH feet Rate Location/Type
01:44PM 39.1667 -76.7500 169° South 217 250 2,600  Level Potomac TRACON
01:45PM 39.1000 -76.7333 169° South 266 306 4,700 2,100 Climbing Potomac TRACON
01:47PM 39.0111 -76.6361 140° Southeast 277 319 8,300 2,400 Climbing Washington Center
01:48PM 38.9511 -76.5500 132° Southeast 294 338 11,300 2,820 Climbing Washington Center
01:49PM 38.8661 -76.4875 150° Southeast 326 375 14,000 1,320 Climbing Washington Center
01:50PM 38.7867 -76.5344 205° Southwest 279 321 14,000 540 Level Washington Center
01:51PM 38.7131 -76.5972 214° Southwest 287 330 15,100 2,520 Climbing Washington Center
01:52PM 38.6439 -76.6575 214° Southwest 301 346 19,200 3,540 Climbing Washington Center
01:53PM 38.5683 -76.7150 211° Southwest 314 361 22,200 2,820 Climbing Washington Center
01:54PM 38.4683 -76.7161 180° South 326 375 24,800 2,340 Climbing Washington Center
01:55PM 38.3578 -76.7011 174° South 358 412 26,900 1,980 Climbing Washington Center
01:56PM 38.2433 -76.6808 172° South 390 449 28,800 1,920 Climbing Washington Center
01:57PM 38.1225 -76.6661 175° South 416 479 30,800 2,580 Climbing Washington Center
01:58PM 38.0058 -76.6511 174° South 428 493 34,100 2,160 Climbing Washington Center
01:59PM 37.8892 -76.6364 174° South 422 486 35,100 960 Climbing Washington Center
02:00PM 37.7725 -76.6189 173° South 422 486 36,000 1,200 Climbing Washington Center
02:01PM 37.6475 -76.6042 175° South 432 497 37,600 1,680 Climbing Washington Center
02:02PM 37.5267 -76.5869 174° South 444 511 39,500 1,140 Climbing Washington Center
02:03PM 37.4100 -76.5828 178° South 439 505 40,000 240 Climbing Washington Center
02:04PM 37.3033 -76.6153 194° South 406 467 40,000  Level Washington Center
02:05PM 37.1967 -76.6478 194° South 406 467 40,000  Level Washington Center
02:06PM 37.0900 -76.6828 195° South 399 459 40,000  Level Washington Center
02:07PM 36.9811 -76.7150 193° South 399 459 40,000  Level Washington Center
02:08PM 36.8764 -76.7500 195° South 399 459 40,000  Level Washington Center
02:09PM 36.7697 -76.7819 193° South 394 453 40,000  Level Washington Center
02:10PM 36.6672 -76.8167 195° South 394 453 40,000  Level Washington Center
02:11PM 36.5583 -76.8486 193° South 394 453 40,000  Level Washington Center
02:12PM 36.4517 -76.8831 195° South 394 453 40,000  Level Washington Center
02:13PM 36.3575 -76.9150 195° South 394 453 40,000  Level Washington Center
02:14PM 36.2486 -76.9467 193° South 394 453 40,000  Level Washington Center
02:15PM 36.1397 -76.9808 194° South 394 453 40,000  Level Washington Center
02:16PM 36.0286 -77.0150 194° South 399 459 40,000  Level Washington Center
02:17PM 35.9197 -77.0464 193° South 399 459 40,000  Level Washington Center
02:18PM 35.8089 -77.0775 193° South 404 465 40,000  Level Washington Center
02:19PM 35.6978 -77.1139 195° South 404 465 40,000  Level Washington Center
02:20PM 35.5825 -77.1475 193° South 404 465 40,000  Level Washington Center
02:21PM 35.4717 -77.1811 194° South 399 459 40,000  Level Washington Center
02:22PM 35.3647 -77.2119 193° South 399 459 40,000  Level Washington Center
02:23PM 35.2536 -77.2453 194° South 399 459 40,000  Level Washington Center
02:24PM 35.1469 -77.2786 194° South 399 459 40,000  Level Washington Center
02:25PM 35.0358 -77.3119 194° South 399 459 40,000  Level Washington Center
02:26PM 34.9289 -77.3450 194° South 399 459 40,000  Level Washington Center
02:27PM 34.8200 -77.3781 194° South 399 459 40,000  Level Washington Center
02:28PM 34.7108 -77.4086 193° South 399 459 40,000  Level Washington Center
02:29PM 34.6019 -77.4417 194° South 399 459 40,000  Level Washington Center
02:30PM 34.4908 -77.4717 193° South 399 459 40,000  Level Washington Center
02:31PM 34.3800 -77.4969 191° South 405 466 40,000  Level Washington Center
02:32PM 34.2669 -77.5194 189° South 410 472 40,000  Level Washington Center
02:33PM 34.1539 -77.5419 189° South 415 478 40,000  Level Washington Center
02:34PM 34.0719 -77.5581 189° South 415 478 40,000  Level Jacksonville Center
02:35PM 33.9686 -77.5817 191° South 415 478 40,000  Level Jacksonville Center
02:36PM 33.8550 -77.6061 190° South 415 478 40,000  Level Jacksonville Center
02:37PM 33.7433 -77.6303 190° South 415 478 40,000  Level Jacksonville Center
02:38PM 33.6317 -77.6569 191° South 415 478 40,000  Level Jacksonville Center
02:39PM 33.5181 -77.6811 190° South 415 478 40,000  Level Jacksonville Center
02:40PM 33.4042 -77.7053 190° South 415 478 40,000  Level Jacksonville Center
02:41PM 33.2906 -77.7292 190° South 415 478 40,000  Level Jacksonville Center
02:42PM 33.1789 -77.7556 191° South 415 478 40,000  Level Jacksonville Center
02:43PM 33.0672 -77.7794 190° South 415 478 40,000  Level Jacksonville Center
02:44PM 32.9511 -77.7983 188° South 415 478 40,000  Level Jacksonville Center
02:45PM 32.8394 -77.8269 192° South 420 483 40,000  Level Jacksonville Center
02:46PM 32.7297 -77.8503 190° South 415 478 40,000  Level Jacksonville Center
02:47PM 32.6161 -77.8739 190° South 415 478 40,000  Level Jacksonville Center
02:48PM 32.5022 -77.9025 192° South 415 478 40,000  Level Jacksonville Center
02:49PM 32.3906 -77.9233 189° South 410 472 40,000  Level Jacksonville Center
02:50PM 32.2767 -77.9467 190° South 410 472 40,000  Level Jacksonville Center
02:51PM 32.1625 -77.9675 189° South 410 472 40,000  Level Jacksonville Center
02:52PM 32.0489 -77.9981 193° South 415 478 40,000  Level Jacksonville Center
02:53PM 31.9350 -78.0214 190° South 420 483 40,000  Level Jacksonville Center
02:54PM 31.8211 -78.0444 190° South 425 489 40,000  Level Jacksonville Center
02:55PM 31.7072 -78.0675 189° South 425 489 40,000  Level Jacksonville Center
02:56PM 31.5914 -78.0956 192° South 425 489 40,000  Level Jacksonville Center
02:57PM 31.4794 -78.1183 190° South 425 489 40,000  Level Jacksonville Center
02:58PM 31.3656 -78.1386 189° South 425 489 40,000  Level Jacksonville Center
02:59PM 31.2519 -78.1689 193° South 425 489 40,000  Level Jacksonville Center
03:00PM 31.1400 -78.1889 189° South 425 489 40,000  Level Jacksonville Center
03:01PM 31.0258 -78.2092 189° South 425 489 40,000  Level Jacksonville Center
03:02PM 30.9019 -78.2444 194° South 425 489 40,000  Level Jacksonville Center
03:03PM 30.7900 -78.2692 191° South 421 484 40,000  Level Jacksonville Center
03:04PM 30.6783 -78.2939 191° South 415 478 40,000  Level Jacksonville Center
03:05PM 30.4811 -78.3358 190° South 404 465 40,000  Level Miami Center
03:06PM 30.3583 -78.3147 172° South 423 487 40,000  Level Miami Center
03:07PM 30.2467 -78.2461 152° Southeast 440 506 40,000  Level Miami Center
03:08PM 30.1264 -78.1797 154° Southeast 456 525 40,000  Level Miami Center
03:09PM 30.0206 -78.1139 152° Southeast 462 532 40,000  Level Miami Center
03:10PM 29.9022 -78.0431 153° Southeast 454 522 40,000  Level Miami Center
03:11PM 29.7903 -77.9750 152° Southeast 451 519 40,000  Level Miami Center
03:12PM 29.6822 -77.9142 154° Southeast 451 519 40,000  Level Miami Center
03:13PM 29.5639 -77.8436 153° Southeast 456 525 40,000  Level Miami Center
03:14PM 29.4517 -77.7736 151° Southeast 456 525 40,000  Level Miami Center
03:15PM 29.3372 -77.7058 153° Southeast 461 531 40,000  Level Miami Center
03:16PM 29.2125 -77.6361 154° Southeast 474 545 40,000  Level Miami Center
03:17PM 29.1044 -77.5711 152° Southeast 460 529 40,000  Level Miami Center
03:18PM 28.9942 -77.5039 152° Southeast 460 529 40,000  Level Miami Center
03:19PM 28.8756 -77.4344 153° Southeast 461 531 40,000  Level Miami Center
03:20PM 28.7631 -77.3700 153° Southeast 468 539 40,000  Level Miami Center
03:21PM 28.6506 -77.3056 153° Southeast 468 539 40,000  Level Miami Center
03:22PM 28.5358 -77.2389 153° Southeast 468 539 40,000  Level Miami Center
03:23PM 28.4192 -77.1703 153° Southeast 468 539 40,000  Level Miami Center
03:24PM 28.3086 -77.1061 153° Southeast 468 539 40,000  Level Miami Center
03:25PM 28.2003 -77.0400 152° Southeast 468 539 40,000  Level Miami Center
03:26PM 28.0792 -76.9761 155° Southeast 461 531 40,000  Level Miami Center
03:27PM 27.9644 -76.9056 151° Southeast 461 531 40,000  Level Miami Center
03:28PM 27.8558 -76.8303 148° Southeast 469 540 40,000  Level Miami Center
03:29PM 27.7617 -76.7342 138° Southeast 457 526 40,000 240 Level Miami Center
03:30PM 27.6614 -76.6311 138° Southeast 468 539 40,500 480 Climbing Miami Center
03:31PM 27.5650 -76.5281 137° Southeast 485 558 41,000 240 Climbing Miami Center
03:32PM 27.4708 -76.4347 139° Southeast 465 535 41,000  Level Miami Center
03:33PM 27.3744 -76.3344 137° Southeast 460 529 41,000  Level Miami Center
03:34PM 27.2739 -76.2300 137° Southeast 472 543 41,000  Level Miami Center
03:35PM 27.1772 -76.1300 137° Southeast 478 550 41,000  Level Miami Center
03:36PM 27.0786 -76.0303 138° Southeast 466 536 41,000  Level Miami Center
03:37PM 26.9903 -75.9422 138° Southeast 464 534 41,000  Level Miami Center
03:38PM 26.8892 -75.8383 137° Southeast 469 540 41,000  Level Miami Center
03:39PM 26.7903 -75.7392 138° Southeast 468 539 41,000  Level Miami Center
03:40PM 26.7081 -75.6353 132° Southeast 458 527 41,000  Level Miami Center
03:41PM 26.6278 -75.5244 129° Southeast 463 533 41,000  Level Miami Center
03:42PM 26.5556 -75.4253 129° Southeast 462 532 41,000  Level Miami Center
03:43PM 26.4731 -75.3103 129° Southeast 462 532 41,000  Level Miami Center
03:44PM 26.3839 -75.1933 130° Southeast 468 539 41,000  Level Miami Center
03:45PM 26.3033 -75.0831 129° Southeast 468 539 41,000  Level Miami Center
03:46PM 26.2247 -74.9756 129° Southeast 457 526 41,000  Level Miami Center
03:47PM 26.1481 -74.8678 128° Southeast 457 526 41,000  Level Miami Center
03:48PM 26.0650 -74.7536 129° Southeast 457 526 41,000  Level Miami Center
03:49PM 25.9797 -74.6442 131° Southeast 465 535 41,000  Level Miami Center
03:50PM 25.9006 -74.5347 129° Southeast 472 543 41,000  Level Miami Center
03:51PM 25.8133 -74.4233 131° Southeast 466 536 41,000  Level Miami Center
03:52PM 25.7297 -74.3028 128° Southeast 463 533 41,000  Level Miami Center
03:53PM 25.6442 -74.1894 130° Southeast 473 544 41,000  Level Miami Center
03:54PM 25.5647 -74.0831 130° Southeast 464 534 41,000  Level Miami Center
03:55PM 25.4833 -73.9767 130° Southeast 464 534 41,000  Level Miami Center
03:56PM 25.3997 -73.8661 130° Southeast 465 535 41,000  Level Miami Center
03:57PM 25.3158 -73.7531 129° Southeast 470 541 41,000  Level Miami Center
03:58PM 25.2297 -73.6406 130° Southeast 470 541 41,000  Level Miami Center
03:59PM 25.1503 -73.5369 130° Southeast 463 533 41,000  Level Miami Center
04:00PM 25.0683 -73.4269 129° Southeast 463 533 41,000  Level Miami Center
04:01PM 24.9864 -73.3169 129° Southeast 468 539 41,000  Level Miami Center
04:02PM 24.9042 -73.2092 130° Southeast 468 539 41,000  Level Miami Center
04:03PM 24.8200 -73.0997 130° Southeast 468 539 41,000  Level Miami Center
04:04PM 24.7336 -72.9903 131° Southeast 468 539 41,000  Level Miami Center
04:05PM 24.6494 -72.8808 130° Southeast 468 539 41,000  Level Miami Center
04:06PM 24.5819 -72.7872 128° Southeast 461 531 41,000  Level Miami Center
04:07PM 24.4914 -72.6783 132° Southeast 461 531 41,000  Level Miami Center
04:08PM 24.4047 -72.5717 132° Southeast 471 542 41,000  Level Miami Center
04:09PM 24.3239 -72.4536 127° Southeast 455 524 41,000  Level Miami Center
04:10PM 24.2414 -72.3497 131° Southeast 455 524 41,000  Level Miami Center
04:11PM 24.1567 -72.2411 131° Southeast 460 529 41,000  Level Miami Center
04:12PM 24.0742 -72.1372 131° Southeast 460 529 41,000  Level Miami Center
04:13PM 23.9933 -72.0267 129° Southeast 468 539 41,000  Level Miami Center
04:14PM 23.9103 -71.9208 131° Southeast 462 532 41,000  Level Miami Center
04:15PM 23.8233 -71.8108 131° Southeast 462 532 41,000  Level Miami Center
04:16PM 23.7425 -71.7075 131° Southeast 462 532 41,000  Level Miami Center
04:17PM 23.6594 -71.6019 131° Southeast 462 532 41,000  Level Miami Center
04:18PM 23.5764 -71.4992 131° Southeast 462 532 41,000  Level Miami Center
04:19PM 23.4933 -71.3961 131° Southeast 462 532 41,000  Level Miami Center
04:20PM 23.4144 -71.2933 130° Southeast 455 524 41,000  Level Miami Center
04:21PM 23.3314 -71.1953 133° Southeast 448 516 41,000  Level Miami Center
04:22PM 23.2500 -71.0881 130° Southeast 448 516 41,000  Level Miami Center
04:23PM 23.1689 -70.9881 131° Southeast 454 522 41,000  Level Miami Center
04:24PM 23.0856 -70.8811 130° Southeast 454 522 41,000  Level Miami Center
04:25PM 23.0108 -70.7878 131° Southeast 454 522 41,000  Level Miami Center
04:26PM 22.9272 -70.6836 131° Southeast 454 522 41,000  Level Miami Center
04:27PM 22.8439 -70.5839 132° Southeast 459 528 41,000  Level Miami Center
04:28PM 22.7600 -70.4756 130° Southeast 459 528 41,000  Level Miami Center
04:29PM 22.6742 -70.3697 131° Southeast 459 528 41,000  Level Miami Center
04:30PM 22.5883 -70.2683 133° Southeast 464 534 41,000  Level Miami Center
04:31PM 22.5069 -70.1669 131° Southeast 464 534 41,000  Level Miami Center
04:32PM 22.4208 -70.0639 132° Southeast 464 534 41,000  Level Miami Center
04:33PM 22.3392 -69.9603 130° Southeast 464 534 41,000  Level Miami Center
04:34PM 22.2550 -69.8572 131° Southeast 464 534 41,000  Level Miami Center
04:35PM 22.1711 -69.7544 131° Southeast 464 534 41,000  Level Miami Center
04:36PM 22.0869 -69.6514 131° Southeast 464 534 41,000  Level Miami Center
04:37PM 21.9989 -69.5511 133° Southeast 464 534 41,000  Level Miami Center
04:38PM 21.9189 -69.4483 130° Southeast 458 527 41,000  Level Miami Center
04:39PM 21.8303 -69.3439 132° Southeast 458 527 41,000  Level Miami Center
04:40PM 21.7439 -69.2417 132° Southeast 464 534 41,000  Level Miami Center
04:41PM 21.6617 -69.1394 131° Southeast 464 534 41,000  Level Miami Center
04:42PM 21.5733 -69.0378 133° Southeast 464 534 41,000  Level Miami Center
04:43PM 21.4844 -68.9317 132° Southeast 464 534 41,000  Level Miami Center
04:44PM 21.4000 -68.8297 132° Southeast 470 541 41,000  Level Miami Center
04:45PM 21.3069 -68.7242 133° Southeast 471 542 41,000  Level Miami Center
04:46PM 21.2244 -68.6228 131° Southeast 471 542 41,000  Level Miami Center
04:47PM 21.1356 -68.5194 133° Southeast 471 542 41,000  Level Miami Center
04:48PM 21.0508 -68.4158 131° Southeast 471 542 41,000 -120 Level Miami Center
04:49PM 20.9639 -68.3128 132° Southeast 471 542 40,800 -600 Descending Miami Center
04:50PM 20.8811 -68.2094 131° Southeast 471 542 39,800 -900 Descending Miami Center
04:51PM 20.7881 -68.1089 135° Southeast 471 542 39,000 -420 Descending Miami Center
04:52PM 20.6686 -68.0569 158° South 448 516 39,000  Level Miami Center
04:53PM 20.5333 -68.0192 165° South 453 521 39,000  Level Miami Center
04:54PM 20.4106 -67.9808 164° South 459 528 39,000  Level Miami Center
04:55PM 20.3069 -67.9544 167° South 466 536 39,000  Level Miami Center
04:56PM 20.1569 -67.9133 166° South 466 536 39,000  Level Miami Center
04:57PM 20.0667 -67.8667 154° Southeast 460 529 39,000 -240 Level San Juan Center
04:58PM 19.9333 -67.8333 167° South 460 529 38,600 -660 Descending San Juan Center
04:59PM 19.8167 -67.8000 165° South 470 541 37,700 -840 Descending San Juan Center
05:00PM 19.6833 -67.7500 161° South 470 541 37,000 -360 Descending San Juan Center
05:01PM 19.5500 -67.7167 167° South 470 541 37,000 -660 Level San Juan Center
05:02PM 19.4333 -67.6833 165° South 470 541 35,700 -2,040 Descending San Juan Center
05:03PM 19.3000 -67.6500 167° South 470 541 33,000 -2,640 Descending San Juan Center
05:04PM 19.2167 -67.5667 137° Southeast 440 506 30,500 -2,400 Descending San Juan Center
05:05PM 19.1667 -67.4500 114° Southeast 430 495 28,300 -2,280 Descending San Juan Center
05:06PM 19.1000 -67.3333 121° Southeast 410 472 26,000 -2,100 Descending San Juan Center
05:07PM 19.0500 -67.2333 118° Southeast 390 449 24,100 -2,040 Descending San Juan Center
05:08PM 19.0167 -67.1333 109° East 390 449 22,000 -2,100 Descending San Juan Center
05:09PM 18.9667 -67.0333 118° Southeast 360 414 20,000 -1,980 Descending San Juan Center
05:10PM 18.9167 -66.9500 122° Southeast 340 391 18,100 -1,920 Descending San Juan Center
05:11PM 18.8667 -66.8500 118° Southeast 330 380 16,200 -1,800 Descending San Juan Center
05:12PM 18.8333 -66.7833 118° Southeast 310 357 14,500 -1,740 Descending San Juan Center
05:13PM 18.8000 -66.7000 113° Southeast 300 345 12,700 -1,560 Descending San Juan Center
05:14PM 18.7500 -66.6167 122° Southeast 290 334 11,400 -1,260 Descending San Juan Center
05:15PM 18.7000 -66.5500 128° Southeast 300 345 10,200 -1,200 Descending San Juan Center
05:16PM 18.6500 -66.4833 128° Southeast 270 311 9,100 -1,260 Descending San Juan Center
05:17PM 18.6000 -66.4333 137° Southeast 270 311 7,700 -1,440 Descending San Juan Center
05:18PM 18.5500 -66.3667 128° Southeast 260 299 6,300 -1,440 Descending San Juan Center
05:19PM 18.5167 -66.3000 118° Southeast 250 288 4,900 -1,020 Descending San Juan Center
05:20PM 18.4667 -66.2500 137° Southeast 230 265 4,300 -600 Descending San Juan Center
05:21PM 18.4333 -66.2167 137° Southeast 190 219 3,800 -840 Descending San Juan Center
05:23PM 18.4333 -66.1000 118° Southeast 170 196 1,800 -900 Descending San Juan Center
05:24PM 18.4333 -66.0667 90° East 110 127 1,100 -660 Descending San Juan Center
05:25PM 18.4333 -66.0333 90° East 130 150 500 -600 Descending San Juan Center